createdAt,value
2019-06-01T00:00:34.449Z,97359.89
2019-06-01T00:01:44.630Z,97363.83
2019-06-01T00:02:56.705Z,97356.56
2019-06-01T00:04:02.922Z,97358.18
2019-06-01T00:05:11.054Z,97353.68
2019-06-01T00:06:18.276Z,97354.64
2019-06-01T00:07:26.282Z,97358.23
2019-06-01T00:08:33.535Z,97358.36
2019-06-01T00:09:41.560Z,97354.91
2019-06-01T00:10:49.596Z,97355.05
2019-06-01T00:11:57.748Z,97361.25
2019-06-01T00:13:04.972Z,97358.80
2019-06-01T00:14:12.979Z,97361.90
2019-06-01T00:15:20.399Z,97358.09
2019-06-01T00:16:28.466Z,97356.91
2019-06-01T00:17:35.680Z,97353.94
2019-06-01T00:18:44.022Z,97357.40
2019-06-01T00:19:51.492Z,97355.39
2019-06-01T00:21:00.563Z,97353.25
2019-06-01T00:22:07.788Z,97348.48
2019-06-01T00:23:15.796Z,97347.30
2019-06-01T00:24:23.030Z,97348.13
2019-06-01T00:25:31.014Z,97348.27
2019-06-01T00:26:38.388Z,97354.47
2019-06-01T00:27:46.770Z,97351.50
2019-06-01T00:28:54.055Z,97351.66
2019-06-01T00:30:02.130Z,97353.45
2019-06-01T00:31:10.425Z,97352.28
2019-06-01T00:32:18.598Z,97346.34
2019-06-01T00:33:25.821Z,97346.47
2019-06-01T00:34:33.813Z,97347.08
2019-06-01T00:36:49.667Z,97345.07
2019-06-01T00:37:57.199Z,97341.75
2019-06-01T00:39:05.911Z,97341.08
2019-06-01T00:40:13.549Z,97341.56
2019-06-01T00:41:21.623Z,97343.00
2019-06-01T00:42:29.137Z,97345.28
2019-06-01T00:43:36.931Z,97339.69
2019-06-01T00:44:44.370Z,97344.09
2019-06-01T00:45:53.140Z,97340.64
2019-06-01T00:47:00.660Z,97343.40
2019-06-01T00:48:08.472Z,97344.84
2019-06-01T00:49:15.926Z,97349.60
2019-06-01T00:50:23.754Z,97350.08
2019-06-01T00:51:31.289Z,97341.87
2019-06-01T00:52:39.188Z,97341.52
2019-06-01T00:53:47.334Z,97341.20
2019-06-01T00:54:55.155Z,97345.13
2019-06-01T00:56:02.579Z,97337.75
2019-06-01T00:57:10.402Z,97344.78
2019-06-01T00:58:17.837Z,97342.64
2019-06-01T00:59:26.023Z,97342.29
2019-06-01T01:00:43.230Z,97345.39
2019-06-01T01:01:43.884Z,97346.36
2019-06-01T01:02:52.216Z,97343.83
2019-06-01T01:04:00.057Z,97345.75
2019-06-01T01:05:18.310Z,97340.64
2019-06-01T01:06:26.212Z,97341.60
2019-06-01T01:07:33.654Z,97340.01
2019-06-01T01:08:41.473Z,97338.00
2019-06-01T01:09:48.907Z,97337.65
2019-06-01T01:10:56.719Z,97334.20
2019-06-01T01:12:04.214Z,97332.06
2019-06-01T01:13:17.614Z,97335.16
2019-06-01T01:14:25.028Z,97342.53
2019-06-01T01:15:32.867Z,97335.77
2019-06-01T01:16:40.347Z,97330.53
2019-06-01T01:17:48.150Z,97341.48
2019-06-01T01:18:55.955Z,97335.77
2019-06-01T01:20:03.839Z,97337.56
2019-06-01T01:21:11.455Z,97340.17
2019-06-01T01:22:19.280Z,97337.91
2019-06-01T01:23:26.706Z,97337.72
2019-06-01T01:24:34.512Z,97339.03
2019-06-01T01:25:41.933Z,97336.41
2019-06-01T01:26:50.522Z,97337.37
2019-06-01T01:27:58.049Z,97333.22
2019-06-01T01:29:05.953Z,97342.38
2019-06-01T01:30:13.917Z,97335.97
2019-06-01T01:31:21.707Z,97341.69
2019-06-01T01:32:29.144Z,97339.32
2019-06-01T01:33:36.940Z,97340.76
2019-06-01T01:34:44.344Z,97345.16
2019-06-01T01:35:52.592Z,97346.48
2019-06-01T01:37:01.276Z,97343.50
2019-06-01T01:38:09.084Z,97342.36
2019-06-01T01:39:16.521Z,97345.45
2019-06-01T01:40:24.343Z,97347.59
2019-06-01T01:41:31.765Z,97344.14
2019-06-01T01:42:39.576Z,97349.52
2019-06-01T01:43:48.355Z,97342.61
2019-06-01T01:44:56.640Z,97344.88
2019-06-01T01:46:05.531Z,97344.53
2019-06-01T01:47:14.425Z,97341.08
2019-06-01T01:48:21.914Z,97347.27
2019-06-01T01:49:29.757Z,97343.83
2019-06-01T01:50:37.181Z,97343.83
2019-06-01T01:51:45.002Z,97341.81
2019-06-01T01:52:52.737Z,97343.60
2019-06-01T01:54:00.659Z,97345.04
2019-06-01T01:55:09.873Z,97342.10
2019-06-01T01:56:17.684Z,97338.78
2019-06-01T01:57:25.105Z,97342.36
2019-06-01T01:58:32.914Z,97337.95
2019-06-01T01:59:40.336Z,97345.80
2019-06-01T02:00:49.242Z,97338.42
2019-06-01T02:01:56.649Z,97340.70
2019-06-01T02:03:05.873Z,97335.94
2019-06-01T02:04:13.280Z,97334.27
2019-06-01T02:05:21.084Z,97333.44
2019-06-01T02:06:29.363Z,97331.30
2019-06-01T02:07:37.487Z,97329.16
2019-06-01T02:08:44.996Z,97330.47
2019-06-01T02:09:53.254Z,97327.02
2019-06-01T02:11:01.786Z,97327.98
2019-06-01T02:12:09.675Z,97326.32
2019-06-01T02:13:17.124Z,97326.32
2019-06-01T02:14:24.949Z,97327.28
2019-06-01T02:15:32.361Z,97325.49
2019-06-01T02:16:40.169Z,97324.78
2019-06-01T02:17:47.602Z,97333.47
2019-06-01T02:18:56.934Z,97331.84
2019-06-01T02:20:05.639Z,97332.32
2019-06-01T02:21:13.434Z,97335.06
2019-06-01T02:22:20.846Z,97328.17
2019-06-01T02:23:28.651Z,97329.60
2019-06-01T02:24:36.072Z,97334.48
2019-06-01T02:25:43.883Z,97326.64
2019-06-01T02:26:51.323Z,97333.66
2019-06-01T02:27:59.300Z,97326.77
2019-06-01T02:29:06.874Z,97322.84
2019-06-01T02:30:17.186Z,97330.20
2019-06-01T02:31:39.910Z,97325.58
2019-06-01T02:32:34.064Z,97326.53
2019-06-01T02:33:41.512Z,97323.22
2019-06-01T02:34:49.297Z,97321.59
2019-06-01T02:35:58.051Z,97321.71
2019-06-01T02:37:05.968Z,97321.36
2019-06-01T02:38:13.388Z,97318.87
2019-06-01T02:39:21.217Z,97318.52
2019-06-01T02:40:29.519Z,97319.47
2019-06-01T02:41:37.331Z,97317.81
2019-06-01T02:42:44.949Z,97317.08
2019-06-01T02:43:52.955Z,97314.45
2019-06-01T02:45:01.321Z,97309.83
2019-06-01T02:46:09.763Z,97311.30
2019-06-01T02:47:17.183Z,97314.39
2019-06-01T02:48:24.990Z,97311.06
2019-06-01T02:49:32.432Z,97317.13
2019-06-01T02:50:40.244Z,97316.42
2019-06-01T02:51:47.644Z,97318.21
2019-06-01T02:52:55.610Z,97316.07
2019-06-01T02:54:04.421Z,97318.34
2019-06-01T02:55:17.663Z,97319.64
2019-06-01T02:56:25.084Z,97318.81
2019-06-01T02:57:32.878Z,97319.06
2019-06-01T02:58:40.283Z,97322.03
2019-06-01T02:59:48.067Z,97316.92
2019-06-01T03:01:35.737Z,97325.61
2019-06-01T03:02:44.076Z,97319.19
2019-06-01T03:03:54.707Z,97319.61
2019-06-01T03:05:03.276Z,97316.52
2019-06-01T03:06:13.702Z,97318.30
2019-06-01T03:07:22.341Z,97317.00
2019-06-01T03:08:32.267Z,97320.56
2019-06-01T03:09:42.222Z,97318.08
2019-06-01T03:10:53.166Z,97319.38
2019-06-01T03:12:06.288Z,97322.63
2019-06-01T03:13:18.898Z,97316.22
2019-06-01T03:14:30.566Z,97317.77
2019-06-01T03:15:41.722Z,97314.80
2019-06-01T03:16:53.211Z,97312.79
2019-06-01T03:18:04.260Z,97316.36
2019-06-01T03:19:12.671Z,97314.82
2019-06-01T03:20:20.184Z,97315.80
2019-06-01T03:21:34.713Z,97316.64
2019-06-01T03:22:43.830Z,97308.79
2019-06-01T03:23:56.265Z,97310.70
2019-06-01T03:25:08.095Z,97315.09
2019-06-01T03:26:20.814Z,97314.27
2019-06-01T03:27:32.896Z,97310.47
2019-06-01T03:28:47.187Z,97307.02
2019-06-01T03:29:57.927Z,97313.20
2019-06-01T03:31:08.298Z,97309.05
2019-06-01T03:32:34.351Z,97314.28
2019-06-01T03:33:24.538Z,97308.22
2019-06-01T03:34:33.351Z,97317.85
2019-06-01T03:35:41.545Z,97312.27
2019-06-01T03:36:49.052Z,97318.68
2019-06-01T03:37:57.130Z,97312.62
2019-06-01T03:39:06.771Z,97312.97
2019-06-01T03:40:23.391Z,97312.97
2019-06-01T03:41:24.027Z,97311.31
2019-06-01T03:42:32.076Z,97311.31
2019-06-01T03:43:39.335Z,97312.14
2019-06-01T03:44:47.355Z,97313.45
2019-06-01T03:45:54.554Z,97314.76
2019-06-01T03:47:03.778Z,97318.68
2019-06-01T03:48:11.227Z,97313.45
2019-06-01T03:49:19.262Z,97317.85
2019-06-01T03:50:26.470Z,97314.76
2019-06-01T03:51:34.459Z,97317.37
2019-06-01T03:52:41.658Z,97314.76
2019-06-01T03:53:49.648Z,97311.67
2019-06-01T03:54:56.872Z,97311.19
2019-06-01T03:56:05.021Z,97307.74
2019-06-01T03:57:12.205Z,97310.71
2019-06-01T03:58:20.211Z,97312.02
2019-06-01T03:59:27.437Z,97312.50
2019-06-01T04:00:35.458Z,97311.67
2019-06-01T04:01:42.685Z,97311.67
2019-06-01T04:02:51.741Z,97308.58
2019-06-01T04:03:58.967Z,97310.36
2019-06-01T04:05:07.750Z,97310.36
2019-06-01T04:06:14.992Z,97312.14
2019-06-01T04:07:22.996Z,97311.67
2019-06-01T04:08:30.133Z,97314.28
2019-06-01T04:09:38.122Z,97310.00
2019-06-01T04:10:46.399Z,97315.95
2019-06-01T04:11:54.437Z,97319.87
2019-06-01T04:13:01.669Z,97309.41
2019-06-01T04:14:09.961Z,97308.58
2019-06-01T04:15:17.281Z,97307.74
2019-06-01T04:16:25.288Z,97313.80
2019-06-01T04:17:32.940Z,97309.05
2019-06-01T04:18:41.013Z,97306.44
2019-06-01T04:19:48.213Z,97312.97
2019-06-01T04:20:56.233Z,97312.02
2019-06-01T04:22:04.023Z,97309.41
2019-06-01T04:23:12.432Z,97312.02
2019-06-01T04:24:19.724Z,97308.58
2019-06-01T04:25:27.847Z,97312.14
2019-06-01T04:26:35.041Z,97312.62
2019-06-01T04:27:43.061Z,97307.39
2019-06-01T04:28:50.287Z,97303.47
2019-06-01T04:29:58.294Z,97310.00
2019-06-01T04:31:06.487Z,97303.47
2019-06-01T04:32:14.534Z,97306.91
2019-06-01T04:33:21.761Z,97307.74
2019-06-01T04:34:29.781Z,97308.22
2019-06-01T04:35:37.023Z,97312.97
2019-06-01T04:36:45.049Z,97310.84
2019-06-01T04:37:52.270Z,97310.36
2019-06-01T04:39:00.260Z,97313.80
2019-06-01T04:40:07.983Z,97314.63
2019-06-01T04:41:16.021Z,97311.89
2019-06-01T04:42:23.258Z,97311.42
2019-06-01T04:43:32.343Z,97307.97
2019-06-01T04:44:39.572Z,97315.70
2019-06-01T04:45:47.638Z,97311.77
2019-06-01T04:46:54.861Z,97310.82
2019-06-01T04:48:02.869Z,97309.52
2019-06-01T04:49:11.973Z,97318.06
2019-06-01T04:50:21.190Z,97315.45
2019-06-01T04:51:28.430Z,97319.73
2019-06-01T04:52:37.522Z,97314.02
2019-06-01T04:53:44.749Z,97315.17
2019-06-01T04:54:52.766Z,97311.48
2019-06-01T04:55:59.975Z,97313.14
2019-06-01T04:57:08.917Z,97312.55
2019-06-01T04:58:16.289Z,97311.94
2019-06-01T04:59:24.584Z,97312.64
2019-06-01T05:00:31.803Z,97315.61
2019-06-01T05:01:39.829Z,97314.15
2019-06-01T05:02:47.051Z,97308.80
2019-06-01T05:03:55.122Z,97306.41
2019-06-01T05:05:02.331Z,97307.59
2019-06-01T05:06:11.325Z,97309.73
2019-06-01T05:07:18.631Z,97310.31
2019-06-01T05:08:26.635Z,97314.11
2019-06-01T05:09:33.843Z,97312.64
2019-06-01T05:10:41.847Z,97312.30
2019-06-01T05:11:49.043Z,97310.03
2019-06-01T05:12:57.039Z,97314.66
2019-06-01T05:14:05.434Z,97314.66
2019-06-01T05:15:16.072Z,97314.53
2019-06-01T05:16:23.324Z,97318.69
2019-06-01T05:17:32.406Z,97317.25
2019-06-01T05:18:40.725Z,97316.65
2019-06-01T05:19:48.733Z,97313.55
2019-06-01T05:20:56.947Z,97316.72
2019-06-01T05:22:06.177Z,97313.53
2019-06-01T05:23:14.831Z,97313.76
2019-06-01T05:24:22.946Z,97312.67
2019-06-01T05:25:30.171Z,97314.34
2019-06-01T05:26:38.193Z,97314.05
2019-06-01T05:27:45.418Z,97313.45
2019-06-01T05:28:53.426Z,97318.55
2019-06-01T05:30:00.667Z,97312.23
2019-06-01T05:31:12.849Z,97312.94
2019-06-01T05:32:18.745Z,97314.47
2019-06-01T05:33:36.898Z,97313.52
2019-06-01T05:34:35.842Z,97312.88
2019-06-01T05:35:43.907Z,97311.44
2019-06-01T05:36:51.105Z,97314.77
2019-06-01T05:37:59.119Z,97311.89
2019-06-01T05:39:10.225Z,97314.25
2019-06-01T05:40:19.779Z,97314.80
2019-06-01T05:41:27.102Z,97316.67
2019-06-01T05:42:35.093Z,97318.69
2019-06-01T05:43:42.348Z,97311.41
2019-06-01T05:44:50.340Z,97314.21
2019-06-01T05:45:57.549Z,97318.36
2019-06-01T05:47:05.556Z,97313.34
2019-06-01T05:48:16.372Z,97313.44
2019-06-01T05:49:22.813Z,97314.81
2019-06-01T05:50:30.098Z,97317.16
2019-06-01T05:51:38.093Z,97314.28
2019-06-01T05:52:45.302Z,97313.38
2019-06-01T05:53:53.296Z,97321.69
2019-06-01T05:55:00.518Z,97315.83
2019-06-01T05:56:08.553Z,97321.55
2019-06-01T05:57:16.822Z,97317.80
2019-06-01T05:58:25.018Z,97321.47
2019-06-01T05:59:32.227Z,97323.34
2019-06-01T06:00:43.339Z,97320.11
2019-06-01T06:01:50.569Z,97318.02
2019-06-01T06:02:58.590Z,97315.14
2019-06-01T06:04:05.829Z,97318.45
2019-06-01T06:05:15.033Z,97316.75
2019-06-01T06:06:22.260Z,97312.04
2019-06-01T06:07:30.251Z,97313.08
2019-06-01T06:08:37.510Z,97317.09
2019-06-01T06:09:45.511Z,97321.08
2019-06-01T06:10:52.722Z,97321.30
2019-06-01T06:12:00.713Z,97320.06
2019-06-01T06:13:07.923Z,97316.56
2019-06-01T06:14:15.932Z,97327.09
2019-06-01T06:15:23.157Z,97324.55
2019-06-01T06:16:31.165Z,97322.97
2019-06-01T06:17:38.387Z,97324.81
2019-06-01T06:18:46.410Z,97328.00
2019-06-01T06:19:53.646Z,97316.88
2019-06-01T06:21:01.646Z,97323.55
2019-06-01T06:22:08.870Z,97321.93
2019-06-01T06:23:16.873Z,97322.97
2019-06-01T06:24:24.084Z,97321.73
2019-06-01T06:25:34.125Z,97320.63
2019-06-01T06:26:41.041Z,97320.33
2019-06-01T06:27:49.046Z,97321.50
2019-06-01T06:28:56.231Z,97321.23
2019-06-01T06:30:04.537Z,97322.27
2019-06-01T06:31:12.865Z,97326.73
2019-06-01T06:32:21.407Z,97323.00
2019-06-01T06:33:28.642Z,97326.66
2019-06-01T06:34:37.043Z,97330.80
2019-06-01T06:35:44.286Z,97329.56
2019-06-01T06:36:52.310Z,97323.66
2019-06-01T06:37:59.526Z,97329.46
2019-06-01T06:39:09.921Z,97327.39
2019-06-01T06:40:18.053Z,97328.22
2019-06-01T06:41:26.009Z,97325.80
2019-06-01T06:42:33.232Z,97335.51
2019-06-01T06:43:41.238Z,97331.43
2019-06-01T06:44:49.518Z,97333.78
2019-06-01T06:45:57.516Z,97336.61
2019-06-01T06:47:04.710Z,97333.36
2019-06-01T06:48:12.706Z,97332.22
2019-06-01T06:49:21.318Z,97333.73
2019-06-01T06:50:30.522Z,97328.58
2019-06-01T06:51:37.714Z,97329.27
2019-06-01T06:52:45.751Z,97328.64
2019-06-01T06:53:52.982Z,97323.56
2019-06-01T06:55:00.977Z,97321.97
2019-06-01T06:56:08.260Z,97326.11
2019-06-01T06:57:16.248Z,97323.69
2019-06-01T06:58:24.419Z,97327.31
2019-06-01T06:59:32.620Z,97317.14
2019-06-01T07:00:39.873Z,97326.89
2019-06-01T07:01:47.896Z,97322.32
2019-06-01T07:02:55.138Z,97320.86
2019-06-01T07:04:12.159Z,97317.61
2019-06-01T07:05:12.047Z,97326.49
2019-06-01T07:06:20.143Z,97320.95
2019-06-01T07:07:27.869Z,97326.55
2019-06-01T07:08:36.050Z,97326.27
2019-06-01T07:09:43.278Z,97318.58
2019-06-01T07:10:51.304Z,97329.75
2019-06-01T07:11:59.604Z,97323.03
2019-06-01T07:13:07.631Z,97323.72
2019-06-01T07:14:14.837Z,97325.58
2019-06-01T07:15:23.476Z,97329.23
2019-06-01T07:16:31.818Z,97323.66
2019-06-01T07:17:39.998Z,97319.42
2019-06-01T07:18:47.191Z,97319.62
2019-06-01T07:19:55.223Z,97322.45
2019-06-01T07:21:02.426Z,97325.09
2019-06-01T07:22:10.432Z,97327.47
2019-06-01T07:23:17.668Z,97324.06
2019-06-01T07:24:26.021Z,97326.55
2019-06-01T07:25:33.279Z,97324.45
2019-06-01T07:26:41.284Z,97327.73
2019-06-01T07:27:48.508Z,97327.94
2019-06-01T07:28:56.517Z,97327.30
2019-06-01T07:30:03.733Z,97332.27
2019-06-01T07:31:11.896Z,97336.08
2019-06-01T07:32:20.190Z,97335.27
2019-06-01T07:33:28.628Z,97335.45
2019-06-01T07:34:41.800Z,97334.83
2019-06-01T07:35:45.591Z,97334.19
2019-06-01T07:36:52.815Z,97333.70
2019-06-01T07:38:00.803Z,97333.06
2019-06-01T07:39:08.824Z,97333.23
2019-06-01T07:40:17.162Z,97329.96
2019-06-01T07:41:24.718Z,97332.79
2019-06-01T07:42:33.141Z,97334.78
2019-06-01T07:43:40.433Z,97333.66
2019-06-01T07:44:48.407Z,97333.03
2019-06-01T07:45:55.634Z,97331.88
2019-06-01T07:47:03.637Z,97336.50
2019-06-01T07:48:10.848Z,97331.43
2019-06-01T07:49:18.857Z,97328.16
2019-06-01T07:50:26.079Z,97329.33
2019-06-01T07:51:34.479Z,97328.52
2019-06-01T07:52:41.677Z,97331.34
2019-06-01T07:53:49.733Z,97333.67
2019-06-01T07:54:56.933Z,97323.33
2019-06-01T07:56:04.929Z,97325.70
2019-06-01T07:57:12.315Z,97327.17
2019-06-01T07:58:20.812Z,97328.67
2019-06-01T07:59:30.557Z,97328.38
2019-06-01T08:00:38.704Z,97323.45
2019-06-01T08:01:45.932Z,97329.88
2019-06-01T08:02:53.941Z,97326.61
2019-06-01T08:04:01.136Z,97330.23
2019-06-01T08:05:09.381Z,97322.17
2019-06-01T08:06:17.386Z,97322.70
2019-06-01T08:07:26.466Z,97328.98
2019-06-01T08:08:34.314Z,97327.52
2019-06-01T08:09:43.492Z,97330.31
2019-06-01T08:10:50.713Z,97328.84
2019-06-01T08:11:58.709Z,97326.88
2019-06-01T08:13:05.916Z,97327.56
2019-06-01T08:14:13.937Z,97319.35
2019-06-01T08:15:21.796Z,97325.61
2019-06-01T08:16:30.012Z,97320.03
2019-06-01T08:17:37.296Z,97323.34
2019-06-01T08:18:45.839Z,97327.97
2019-06-01T08:19:53.068Z,97324.20
2019-06-01T08:21:01.050Z,97329.66
2019-06-01T08:22:08.349Z,97321.23
2019-06-01T08:23:16.410Z,97323.22
2019-06-01T08:24:24.224Z,97325.70
2019-06-01T08:25:32.799Z,97324.91
2019-06-01T08:26:40.114Z,97320.80
2019-06-01T08:27:48.119Z,97320.31
2019-06-01T08:28:55.316Z,97319.66
2019-06-01T08:30:03.332Z,97315.03
2019-06-01T08:31:10.638Z,97314.42
2019-06-01T08:32:18.648Z,97310.84
2019-06-01T08:33:28.750Z,97312.48
2019-06-01T08:34:35.547Z,97316.13
2019-06-01T08:35:42.783Z,97313.65
2019-06-01T08:36:50.823Z,97308.06
2019-06-01T08:37:58.050Z,97310.05
2019-06-01T08:39:07.389Z,97315.52
2019-06-01T08:40:15.201Z,97307.45
2019-06-01T08:41:23.460Z,97306.61
2019-06-01T08:42:31.593Z,97305.63
2019-06-01T08:43:39.786Z,97305.31
2019-06-01T08:44:47.010Z,97303.34
2019-06-01T08:45:55.021Z,97304.36
2019-06-01T08:47:02.243Z,97302.69
2019-06-01T08:48:10.309Z,97306.67
2019-06-01T08:49:17.505Z,97301.58
2019-06-01T08:50:25.744Z,97296.81
2019-06-01T08:51:34.082Z,97298.61
2019-06-01T08:52:42.294Z,97300.94
2019-06-01T08:53:49.515Z,97296.81
2019-06-01T08:54:57.530Z,97299.14
2019-06-01T08:56:04.751Z,97297.17
2019-06-01T08:57:12.724Z,97290.72
2019-06-01T08:58:19.936Z,97292.22
2019-06-01T08:59:28.386Z,97286.94
2019-06-01T09:00:35.918Z,97287.63
2019-06-01T09:01:43.923Z,97287.97
2019-06-01T09:02:51.148Z,97290.45
2019-06-01T09:03:59.189Z,97291.12
2019-06-01T09:05:23.509Z,97285.98
2019-06-01T09:06:18.188Z,97287.48
2019-06-01T09:07:25.395Z,97286.83
2019-06-01T09:08:33.444Z,97284.53
2019-06-01T09:09:40.692Z,97285.83
2019-06-01T09:10:48.661Z,97285.02
2019-06-01T09:11:55.872Z,97287.67
2019-06-01T09:13:03.893Z,97287.98
2019-06-01T09:14:11.107Z,97279.24
2019-06-01T09:15:19.217Z,97285.03
2019-06-01T09:16:27.805Z,97278.10
2019-06-01T09:17:35.876Z,97282.38
2019-06-01T09:18:43.130Z,97281.72
2019-06-01T09:19:51.120Z,97281.72
2019-06-01T09:20:58.361Z,97280.55
2019-06-01T09:22:06.505Z,97279.23
2019-06-01T09:23:13.727Z,97285.53
2019-06-01T09:24:21.780Z,97278.77
2019-06-01T09:25:29.617Z,97281.08
2019-06-01T09:26:37.657Z,97281.05
2019-06-01T09:27:44.885Z,97280.40
2019-06-01T09:28:52.888Z,97278.42
2019-06-01T09:30:00.125Z,97280.23
2019-06-01T09:31:08.150Z,97284.00
2019-06-01T09:32:16.567Z,97281.53
2019-06-01T09:33:25.970Z,97278.22
2019-06-01T09:34:34.388Z,97276.91
2019-06-01T09:35:53.958Z,97274.42
2019-06-01T09:36:51.514Z,97274.23
2019-06-01T09:37:59.540Z,97270.77
2019-06-01T09:39:09.370Z,97271.92
2019-06-01T09:40:17.783Z,97275.05
2019-06-01T09:41:26.345Z,97272.74
2019-06-01T09:42:35.154Z,97268.12
2019-06-01T09:43:43.406Z,97273.53
2019-06-01T09:44:53.198Z,97272.05
2019-06-01T09:46:00.411Z,97270.06
2019-06-01T09:47:08.417Z,97266.92
2019-06-01T09:48:15.640Z,97272.70
2019-06-01T09:49:23.647Z,97267.08
2019-06-01T09:50:31.344Z,97265.56
2019-06-01T09:51:39.797Z,97267.05
2019-06-01T09:52:47.010Z,97268.53
2019-06-01T09:53:55.016Z,97260.59
2019-06-01T09:55:02.245Z,97265.08
2019-06-01T09:56:10.259Z,97265.74
2019-06-01T09:57:17.503Z,97263.06
2019-06-01T09:58:25.500Z,97265.70
2019-06-01T09:59:33.794Z,97265.36
2019-06-01T10:00:43.975Z,97262.17
2019-06-01T10:01:51.144Z,97265.14
2019-06-01T10:02:59.213Z,97260.00
2019-06-01T10:04:06.411Z,97262.11
2019-06-01T10:05:15.001Z,97264.25
2019-06-01T10:06:22.227Z,97261.91
2019-06-01T10:07:30.934Z,97266.17
2019-06-01T10:08:38.287Z,97261.34
2019-06-01T10:09:46.337Z,97260.80
2019-06-01T10:10:53.589Z,97264.44
2019-06-01T10:12:01.587Z,97264.05
2019-06-01T10:13:08.796Z,97271.92
2019-06-01T10:14:16.820Z,97274.05
2019-06-01T10:15:24.023Z,97271.03
2019-06-01T10:16:32.747Z,97271.30
2019-06-01T10:17:40.103Z,97264.48
2019-06-01T10:18:48.120Z,97270.05
2019-06-01T10:19:55.334Z,97265.71
2019-06-01T10:21:03.350Z,97268.30
2019-06-01T10:22:10.576Z,97273.02
2019-06-01T10:23:18.581Z,97266.84
2019-06-01T10:24:25.814Z,97261.95
2019-06-01T10:25:34.453Z,97264.53
2019-06-01T10:26:42.871Z,97261.97
2019-06-01T10:27:50.893Z,97270.53
2019-06-01T10:28:58.122Z,97268.47
2019-06-01T10:30:06.874Z,97264.77
2019-06-01T10:31:14.094Z,97263.55
2019-06-01T10:32:22.113Z,97262.69
2019-06-01T10:33:30.587Z,97258.03
2019-06-01T10:34:39.833Z,97259.50
2019-06-01T10:35:47.208Z,97262.27
2019-06-01T10:36:55.226Z,97259.75
2019-06-01T10:38:02.439Z,97260.53
2019-06-01T10:39:10.835Z,97257.81
2019-06-01T10:40:18.764Z,97262.39
2019-06-01T10:41:26.778Z,97257.36
2019-06-01T10:42:34.422Z,97257.29
2019-06-01T10:43:43.805Z,97259.72
2019-06-01T10:44:51.032Z,97253.33
2019-06-01T10:45:59.028Z,97251.95
2019-06-01T10:47:06.357Z,97251.44
2019-06-01T10:48:14.524Z,97249.84
2019-06-01T10:49:21.749Z,97249.42
2019-06-01T10:50:29.791Z,97249.16
2019-06-01T10:51:38.160Z,97249.24
2019-06-01T10:52:46.339Z,97246.64
2019-06-01T10:53:53.564Z,97245.58
2019-06-01T10:55:01.557Z,97246.21
2019-06-01T10:56:08.814Z,97250.38
2019-06-01T10:57:16.804Z,97248.60
2019-06-01T10:58:24.334Z,97241.01
2019-06-01T10:59:32.349Z,97239.58
2019-06-01T11:00:47.775Z,97242.73
2019-06-01T11:01:49.252Z,97240.45
2019-06-01T11:02:56.476Z,97238.48
2019-06-01T11:04:05.850Z,97234.37
2019-06-01T11:05:14.578Z,97233.73
2019-06-01T11:06:36.231Z,97234.45
2019-06-01T11:07:32.717Z,97227.49
2019-06-01T11:08:41.086Z,97231.27
2019-06-01T11:09:48.397Z,97230.57
2019-06-01T11:10:56.432Z,97225.39
2019-06-01T11:12:03.676Z,97225.02
2019-06-01T11:13:11.696Z,97223.33
2019-06-01T11:14:18.920Z,97228.55
2019-06-01T11:15:26.928Z,97230.33
2019-06-01T11:16:35.176Z,97227.30
2019-06-01T11:17:43.391Z,97224.56
2019-06-01T11:18:50.603Z,97221.84
2019-06-01T11:19:58.650Z,97224.77
2019-06-01T11:21:06.103Z,97218.70
2019-06-01T11:22:14.092Z,97225.73
2019-06-01T11:23:21.303Z,97222.92
2019-06-01T11:24:29.465Z,97221.94
2019-06-01T11:25:37.564Z,97218.34
2019-06-01T11:26:45.651Z,97221.34
2019-06-01T11:27:52.907Z,97219.15
2019-06-01T11:29:00.886Z,97214.23
2019-06-01T11:30:08.829Z,97208.31
2019-06-01T11:31:16.865Z,97204.88
2019-06-01T11:32:24.094Z,97210.95
2019-06-01T11:33:32.112Z,97206.96
2019-06-01T11:34:40.287Z,97202.46
2019-06-01T11:35:48.440Z,97197.66
2019-06-01T11:37:04.838Z,97197.74
2019-06-01T11:38:05.546Z,97203.30
2019-06-01T11:39:12.788Z,97200.57
2019-06-01T11:40:21.025Z,97196.79
2019-06-01T11:41:28.247Z,97190.06
2019-06-01T11:42:36.937Z,97192.02
2019-06-01T11:43:46.087Z,97185.67
2019-06-01T11:44:54.363Z,97182.70
2019-06-01T11:46:02.659Z,97186.70
2019-06-01T11:47:10.649Z,97187.72
2019-06-01T11:48:17.856Z,97177.89
2019-06-01T11:49:25.852Z,97178.83
2019-06-01T11:50:33.063Z,97176.57
2019-06-01T11:51:41.495Z,97178.45
2019-06-01T11:52:48.800Z,97182.98
2019-06-01T11:53:56.829Z,97182.09
2019-06-01T11:55:04.593Z,97179.42
2019-06-01T11:56:12.598Z,97179.31
2019-06-01T11:57:19.942Z,97174.61
2019-06-01T11:58:27.960Z,97173.95
2019-06-01T11:59:35.349Z,97173.95
2019-06-01T12:00:43.816Z,97173.44
2019-06-01T12:01:51.201Z,97171.44
2019-06-01T12:02:59.265Z,97169.09
2019-06-01T12:04:06.511Z,97172.45
2019-06-01T12:05:16.432Z,97173.52
2019-06-01T12:06:23.766Z,97172.69
2019-06-01T12:07:31.895Z,97165.64
2019-06-01T12:08:39.992Z,97172.09
2019-06-01T12:09:48.008Z,97172.09
2019-06-01T12:10:55.291Z,97169.44
2019-06-01T12:12:03.281Z,97169.04
2019-06-01T12:13:10.478Z,97168.10
2019-06-01T12:14:18.469Z,97167.20
2019-06-01T12:15:26.859Z,97168.64
2019-06-01T12:16:36.398Z,97169.27
2019-06-01T12:17:44.860Z,97163.94
2019-06-01T12:18:53.030Z,97162.61
2019-06-01T12:20:00.224Z,97163.42
2019-06-01T12:21:09.261Z,97160.56
2019-06-01T12:22:16.492Z,97161.16
2019-06-01T12:23:24.484Z,97161.66
2019-06-01T12:24:31.694Z,97154.50
2019-06-01T12:25:40.156Z,97157.16
2019-06-01T12:26:47.694Z,97149.68
2019-06-01T12:27:55.788Z,97144.78
2019-06-01T12:29:02.984Z,97153.59
2019-06-01T12:30:11.799Z,97146.73
2019-06-01T12:31:19.030Z,97142.20
2019-06-01T12:32:27.032Z,97143.75
2019-06-01T12:33:34.227Z,97141.63
2019-06-01T12:34:42.221Z,97146.06
2019-06-01T12:35:49.443Z,97141.13
2019-06-01T12:36:57.451Z,97140.02
2019-06-01T12:38:22.293Z,97143.06
2019-06-01T12:39:15.442Z,97142.05
2019-06-01T12:40:22.742Z,97136.62
2019-06-01T12:41:30.752Z,97143.49
2019-06-01T12:42:39.590Z,97139.78
2019-06-01T12:43:49.447Z,97138.55
2019-06-01T12:44:56.718Z,97140.07
2019-06-01T12:46:07.724Z,97131.35
2019-06-01T12:47:13.915Z,97136.24
2019-06-01T12:48:21.936Z,97133.23
2019-06-01T12:49:29.133Z,97140.71
2019-06-01T12:50:37.144Z,97133.70
2019-06-01T12:51:44.618Z,97132.48
2019-06-01T12:52:52.777Z,97129.87
2019-06-01T12:53:59.987Z,97130.44
2019-06-01T12:55:08.221Z,97130.78
2019-06-01T12:56:15.445Z,97130.25
2019-06-01T12:57:23.448Z,97128.34
2019-06-01T12:58:30.630Z,97125.69
2019-06-01T12:59:38.690Z,97130.75
2019-06-01T13:00:46.199Z,97128.36
2019-06-01T13:01:54.303Z,97123.05
2019-06-01T13:03:07.453Z,97125.95
2019-06-01T13:04:11.229Z,97128.89
2019-06-01T13:05:18.551Z,97127.49
2019-06-01T13:06:26.566Z,97128.00
2019-06-01T13:07:33.783Z,97126.30
2019-06-01T13:08:42.702Z,97127.89
2019-06-01T13:09:50.591Z,97128.63
2019-06-01T13:10:58.642Z,97120.84
2019-06-01T13:12:05.893Z,97122.42
2019-06-01T13:13:13.901Z,97115.44
2019-06-01T13:14:21.103Z,97116.84
2019-06-01T13:15:29.182Z,97113.86
2019-06-01T13:16:36.373Z,97110.05
2019-06-01T13:17:45.279Z,97113.78
2019-06-01T13:18:53.628Z,97114.52
2019-06-01T13:20:01.651Z,97116.88
2019-06-01T13:21:09.220Z,97103.38